Lynchburg Regional Airport

Airport
ICAO code: 
KLYH
Summary
ICAO Region: 
NAM
Territory: 
Location: 
Lynchburg, Virginia,
Coordinates: 
Aerial View: 
37° 19' 50.683" N, 79° 12' 4.625" W
Metar
Observation
KLYH 020954Z AUTO 22003KT 10SM CLR 02/00 A2995 RMK AO2 SLP145 T00220000
Station
Lynchburg, Lynchburg Regional Airport
Date/Time
2021-12-02 09:54:00
Wind direction
220°
Wind speed
03 kts
Lowest cloud amount
n/a
Temperature
2.2°C
Dew point
0°C
Humidity
85%
Weather condition
n/a

Description

Lynchburg Regional Airport, also known as Preston Glenn Field, is a public use airport located 9 km southwest of the central business district of the City of Lynchburg, in Campbell County, Virginia.

Climatology

Humid “subtropical” climate (Köppen climate classification Cfa) - characterized by hot, humid summers and cool winters. Significant amounts of precipitation occur in all seasons in most areas. Winter rainfall (and sometimes snowfall) is associated with large storms that the westerlies steer from west to east. Most summer rainfall occurs during thunderstorms and occasional tropical storms (hurricanes).

Runways

Designator Length Width Surface Rops
17/35 1032 23 ASP Yes/Yes
4/22 1768 46 ASP Yes/Yes
Airport map: 
Aerial View: 

SKYbrary Partners:

Safety knowledge contributed by: